Time;durP1;ratioP1;P1;durP2;ratioP2;P2;SDS_P1;SDS_P2;PMS_P1;PMS_P2;Temp;Humidity;BMP_temperature;BMP_pressure;BME280_temperature;BME280_humidity;BME280_pressure;Samples;Min_cycle;Max_cycle;Signal;HPM_P1;HPM_P2
2021/06/13 02:46:35;;;;;;;5.22;2.72;;;18.40;76.20;;;;;;5081602;24;20141;-75
2021/06/13 02:49:07;;;;;;;6.47;2.70;;;18.40;74.50;;;;;;4712629;30;20037;-75
2021/06/13 02:51:39;;;;;;;8.88;2.53;;;18.40;74.70;;;;;;4709023;30;20026;-77
2021/06/13 02:54:10;;;;;;;9.20;2.50;;;18.40;74.40;;;;;;4718884;30;20025;-75
2021/06/13 02:56:58;;;;;;;6.93;2.10;;;18.30;74.00;;;;;;4711696;30;20301;-77
2021/06/13 02:59:47;;;;;;;9.85;2.53;;;18.30;72.60;;;;;;4708436;30;20117;-77
2021/06/13 03:02:16;;;;;;;7.05;2.45;;;18.20;72.70;;;;;;4710995;30;20043;-77
2021/06/13 03:04:44;;;;;;;9.25;2.92;;;18.20;73.60;;;;;;4711293;30;20051;-77
2021/06/13 03:07:16;;;;;;;4.50;1.83;;;18.10;72.80;;;;;;4710973;30;20033;-77
2021/06/13 03:09:42;;;;;;;14.65;2.58;;;18.10;73.50;;;;;;4725595;30;20056;-77
2021/06/13 03:12:14;;;;;;;6.97;2.22;;;18.10;73.10;;;;;;4711250;30;20100;-77
2021/06/13 03:14:42;;;;;;;7.32;2.20;;;18.10;73.70;;;;;;4710848;30;20057;-79
2021/06/13 03:17:10;;;;;;;9.65;3.47;;;18.10;74.00;;;;;;4713720;30;20110;-77
2021/06/13 03:19:40;;;;;;;11.05;2.20;;;18.10;74.10;;;;;;4694091;30;20112;-77
2021/06/13 03:22:06;;;;;;;8.52;2.20;;;18.10;73.40;;;;;;4709820;30;20037;-77
2021/06/13 03:24:37;;;;;;;7.75;2.10;;;18.10;72.70;;;;;;4711231;30;20041;-77
2021/06/13 03:27:06;;;;;;;5.90;1.80;;;18.10;72.90;;;;;;4711411;30;20029;-77
2021/06/13 03:29:33;;;;;;;9.05;2.45;;;18.10;73.20;;;;;;4708867;30;20026;-78
2021/06/13 03:32:00;;;;;;;7.82;2.10;;;18.10;73.00;;;;;;4679518;30;20601;-77
2021/06/13 03:34:27;;;;;;;6.25;2.22;;;18.20;72.70;;;;;;4693882;30;20329;-77
2021/06/13 03:36:54;;;;;;;6.80;2.00;;;18.20;72.80;;;;;;4682600;30;20257;-77
2021/06/13 03:39:22;;;;;;;12.27;2.13;;;18.20;72.50;;;;;;4711438;30;20348;-77
2021/06/13 03:41:51;;;;;;;7.75;2.25;;;18.20;72.30;;;;;;4711447;30;20339;-78
2021/06/13 03:44:17;;;;;;;10.00;2.47;;;18.20;71.60;;;;;;4712216;30;20025;-77
2021/06/13 03:46:45;;;;;;;5.47;2.10;;;18.20;71.80;;;;;;4710724;30;20379;-78
2021/06/13 03:49:12;;;;;;;4.40;2.03;;;18.30;71.40;;;;;;4711851;30;20420;-77
2021/06/13 03:51:38;;;;;;;5.07;1.77;;;18.30;71.40;;;;;;4708508;30;20057;-78
2021/06/13 03:54:04;;;;;;;5.90;1.95;;;18.30;70.90;;;;;;4695925;30;20232;-77
2021/06/13 03:56:35;;;;;;;6.50;2.42;;;18.40;70.80;;;;;;4696728;30;20108;-77
2021/06/13 03:59:02;;;;;;;5.43;1.73;;;18.40;69.50;;;;;;4711236;30;20029;-77
2021/06/13 04:01:28;;;;;;;6.77;2.33;;;18.40;69.90;;;;;;4712053;30;20025;-77
2021/06/13 04:03:55;;;;;;;6.97;1.95;;;18.50;69.10;;;;;;4711754;30;20242;-77
2021/06/13 04:06:25;;;;;;;8.15;1.88;;;18.50;69.00;;;;;;4712370;30;20037;-78
2021/06/13 04:08:52;;;;;;;6.85;2.30;;;18.60;69.30;;;;;;4710830;30;20052;-78
2021/06/13 04:11:20;;;;;;;9.90;2.10;;;18.60;68.50;;;;;;4711924;30;20033;-77
2021/06/13 04:13:47;;;;;;;9.63;2.30;;;18.70;69.20;;;;;;4710767;30;20045;-77
2021/06/13 04:16:15;;;;;;;9.40;2.20;;;18.70;68.30;;;;;;4707854;30;20486;-77
2021/06/13 04:18:42;;;;;;;6.20;2.00;;;18.70;67.60;;;;;;4695617;30;20042;-77
2021/06/13 04:21:10;;;;;;;7.78;1.98;;;18.70;68.30;;;;;;4696239;30;20036;-77
2021/06/13 04:23:38;;;;;;;9.55;2.88;;;18.80;68.90;;;;;;4711637;30;20033;-78
2021/06/13 04:26:04;;;;;;;7.18;2.08;;;18.90;68.80;;;;;;4708580;30;20203;-77
2021/06/13 04:28:30;;;;;;;11.23;2.38;;;18.90;68.50;;;;;;4711171;30;20101;-78
2021/06/13 04:31:12;;;;;;;12.38;2.13;;;19.00;69.00;;;;;;4710481;30;20044;-78
2021/06/13 04:33:40;;;;;;;19.42;2.40;;;19.10;67.50;;;;;;4710267;30;20198;-78
2021/06/13 04:36:07;;;;;;;8.98;2.42;;;19.00;68.20;;;;;;4710336;30;20021;-77
2021/06/13 04:38:33;;;;;;;12.27;2.45;;;18.90;68.50;;;;;;4711169;30;20367;-78
2021/06/13 04:41:00;;;;;;;6.00;2.80;;;18.90;68.70;;;;;;4711261;30;20030;-77
2021/06/13 04:43:26;;;;;;;7.38;2.50;;;18.80;68.90;;;;;;4710951;30;20033;-78
2021/06/13 04:45:52;;;;;;;12.68;2.10;;;18.80;69.30;;;;;;4695332;30;20052;-77
2021/06/13 04:48:19;;;;;;;5.53;2.13;;;18.80;69.20;;;;;;4709445;30;20033;-77
2021/06/13 04:50:44;;;;;;;;;;;18.80;69.70;;;;;;4705292;30;20218;-77
2021/06/13 04:53:32;;;;;;;13.13;2.87;;;18.90;68.90;;;;;;4708345;30;19915;-77
2021/06/13 04:56:05;;;;;;;7.75;2.00;;;18.90;68.70;;;;;;4706782;30;20049;-77
2021/06/13 04:58:31;;;;;;;7.28;2.33;;;18.90;68.70;;;;;;4721078;30;20056;-77
2021/06/13 05:00:56;;;;;;;8.85;2.28;;;18.90;68.20;;;;;;4708424;30;20021;-77
2021/06/13 05:03:22;;;;;;;7.95;2.35;;;18.90;66.80;;;;;;4687938;30;20153;-77
2021/06/13 05:05:48;;;;;;;12.27;3.58;;;18.90;67.20;;;;;;4699114;30;20022;-77
2021/06/13 05:08:14;;;;;;;8.25;2.45;;;18.90;66.90;;;;;;4703352;30;20031;-77
2021/06/13 05:10:40;;;;;;;7.28;2.30;;;18.90;66.50;;;;;;4705077;30;20082;-77
2021/06/13 05:13:17;;;;;;;5.60;2.03;;;18.90;66.40;;;;;;4705342;30;20052;-77
2021/06/13 05:15:43;;;;;;;6.25;1.83;;;19.30;64.70;;;;;;4710939;30;20041;-78
2021/06/13 05:18:09;;;;;;;6.90;2.47;;;20.00;61.80;;;;;;4703776;30;20029;-77
2021/06/13 05:20:35;;;;;;;11.60;1.83;;;20.60;58.50;;;;;;4695203;30;20527;-77
2021/06/13 05:23:03;;;;;;;14.35;2.10;;;21.30;56.20;;;;;;4710135;30;20100;-79
2021/06/13 05:25:35;;;;;;;12.60;2.20;;;21.70;54.60;;;;;;4711233;30;20323;-78
2021/06/13 05:28:03;;;;;;;8.38;1.73;;;21.80;54.30;;;;;;4711463;30;20229;-77
2021/06/13 05:30:31;;;;;;;4.47;1.38;;;22.10;53.90;;;;;;4707108;30;20233;-77
2021/06/13 05:32:57;;;;;;;7.25;2.03;;;22.50;52.30;;;;;;4682654;30;20125;-78
2021/06/13 05:35:24;;;;;;;3.30;1.75;;;22.60;51.00;;;;;;4697172;30;20094;-77
2021/06/13 05:37:50;;;;;;;10.77;2.00;;;22.70;51.10;;;;;;4705364;30;20030;-76
2021/06/13 05:40:18;;;;;;;6.90;1.87;;;22.70;50.60;;;;;;4703330;30;20134;-77
2021/06/13 05:42:44;;;;;;;8.57;1.80;;;22.90;50.00;;;;;;4702468;30;20295;-78
2021/06/13 05:45:13;;;;;;;8.55;1.92;;;23.10;49.60;;;;;;4709193;30;20061;-77
2021/06/13 05:47:39;;;;;;;9.57;1.77;;;23.00;49.50;;;;;;4723923;30;20254;-78
2021/06/13 05:50:08;;;;;;;9.07;1.38;;;23.00;50.00;;;;;;4707976;30;20092;-78
2021/06/13 05:52:34;;;;;;;8.98;1.98;;;22.80;49.90;;;;;;4709851;30;20344;-79
2021/06/13 05:55:00;;;;;;;4.38;1.38;;;22.70;49.70;;;;;;4710117;30;20105;-79
2021/06/13 05:57:31;;;;;;;4.93;1.50;;;22.70;49.80;;;;;;4707603;30;20050;-78
2021/06/13 06:00:11;;;;;;;6.10;1.80;;;22.60;50.00;;;;;;4710201;30;20033;-78
2021/06/13 06:02:42;;;;;;;6.68;1.50;;;22.20;49.30;;;;;;4709463;30;20040;-80
2021/06/13 06:05:10;;;;;;;6.13;1.48;;;21.90;50.70;;;;;;4703823;30;20088;-79
2021/06/13 06:07:36;;;;;;;15.35;2.50;;;22.00;50.70;;;;;;4695383;30;20079;-79
2021/06/13 06:10:04;;;;;;;10.10;1.60;;;22.00;51.10;;;;;;4695325;30;20061;-78
2021/06/13 06:12:30;;;;;;;5.00;1.95;;;22.00;50.80;;;;;;4710307;30;20337;-78
2021/06/13 06:14:56;;;;;;;9.75;2.13;;;21.90;49.50;;;;;;4695573;30;20044;-78
2021/06/13 06:17:22;;;;;;;3.33;1.08;;;21.80;50.00;;;;;;4694344;30;20037;-77
2021/06/13 06:19:47;;;;;;;6.57;1.63;;;21.90;49.80;;;;;;4709838;30;20036;-78
2021/06/13 06:22:13;;;;;;;5.32;1.38;;;22.00;48.50;;;;;;4709716;30;20033;-79
2021/06/13 06:24:39;;;;;;;8.77;1.50;;;22.00;46.90;;;;;;4711147;30;20022;-79
2021/06/13 06:27:05;;;;;;;11.88;1.77;;;21.80;47.50;;;;;;4709903;30;20042;-79
2021/06/13 06:29:31;;;;;;;6.28;1.60;;;21.70;48.40;;;;;;4707033;30;20356;-80
2021/06/13 06:31:57;;;;;;;8.43;1.80;;;21.90;48.50;;;;;;4692129;30;20034;-79
2021/06/13 06:34:23;;;;;;;7.68;1.65;;;22.00;45.90;;;;;;4709178;30;20070;-78
2021/06/13 06:36:49;;;;;;;14.05;1.65;;;21.70;46.80;;;;;;4706556;30;20364;-79
2021/06/13 06:39:16;;;;;;;19.33;1.70;;;21.70;47.00;;;;;;4718566;30;20037;-78
2021/06/13 06:41:42;;;;;;;6.80;1.70;;;21.70;45.80;;;;;;4709579;30;20034;-78
2021/06/13 06:44:09;;;;;;;6.93;1.80;;;21.70;46.20;;;;;;4711256;30;20064;-78
2021/06/13 06:46:35;;;;;;;6.20;1.50;;;21.50;45.60;;;;;;4709796;30;20057;-77
2021/06/13 06:49:02;;;;;;;4.13;1.25;;;21.30;46.50;;;;;;4694148;30;20061;-78
2021/06/13 06:51:28;;;;;;;;;;;21.20;47.00;;;;;;4709917;30;20041;-78
2021/06/13 06:53:58;;;;;;;11.63;2.17;;;21.00;47.70;;;;;;4710272;30;19946;-77
2021/06/13 06:56:28;;;;;;;5.07;1.60;;;21.00;47.80;;;;;;4710098;30;20033;-77
2021/06/13 06:58:55;;;;;;;4.47;1.27;;;20.90;48.50;;;;;;4706158;30;20082;-78
2021/06/13 07:01:21;;;;;;;4.90;1.60;;;20.90;47.60;;;;;;4708384;30;20030;-78
2021/06/13 07:03:48;;;;;;;6.38;1.33;;;21.00;48.90;;;;;;4710514;30;20032;-77
2021/06/13 07:06:14;;;;;;;3.60;1.27;;;21.00;47.80;;;;;;4708904;30;20037;-78
2021/06/13 07:08:40;;;;;;;8.75;2.20;;;21.00;48.40;;;;;;4708773;30;20429;-77
2021/06/13 07:11:05;;;;;;;5.97;1.67;;;21.00;48.70;;;;;;4694916;30;20042;-77
2021/06/13 07:13:32;;;;;;;1.95;1.20;;;20.90;48.80;;;;;;4694282;30;20727;-78
2021/06/13 07:15:58;;;;;;;6.28;2.33;;;20.80;48.70;;;;;;4709063;30;20034;-78
2021/06/13 07:18:26;;;;;;;11.25;2.05;;;20.80;48.70;;;;;;4710307;30;20282;-77
2021/06/13 07:20:52;;;;;;;7.70;1.35;;;20.90;48.30;;;;;;4705705;30;20060;-78
2021/06/13 07:23:18;;;;;;;7.23;1.60;;;21.00;48.60;;;;;;4709856;30;20034;-77
2021/06/13 07:25:44;;;;;;;4.25;1.33;;;21.00;49.40;;;;;;4709110;30;20435;-78
2021/06/13 07:28:10;;;;;;;7.97;1.95;;;21.30;47.50;;;;;;4697534;30;20084;-77
2021/06/13 07:30:36;;;;;;;7.93;1.40;;;21.50;49.10;;;;;;4708184;30;20211;-77
2021/06/13 07:33:03;;;;;;;5.00;1.52;;;21.60;46.40;;;;;;4713036;30;20053;-75
2021/06/13 07:35:30;;;;;;;9.15;1.80;;;21.80;47.10;;;;;;4709496;30;20026;-76
2021/06/13 07:37:56;;;;;;;6.38;2.20;;;21.90;46.30;;;;;;4708597;30;20037;-76
2021/06/13 07:40:22;;;;;;;7.65;1.52;;;22.00;45.60;;;;;;4706306;30;20042;-74
2021/06/13 07:42:49;;;;;;;5.33;1.73;;;22.00;45.90;;;;;;4711498;30;20093;-77
2021/06/13 07:45:15;;;;;;;;;;;22.00;45.40;;;;;;4704782;30;20041;-77
2021/06/13 07:47:42;;;;;;;7.43;1.57;;;21.80;45.80;;;;;;4708496;30;20111;-77
2021/06/13 07:50:11;;;;;;;5.05;1.58;;;21.70;46.40;;;;;;4719011;30;20036;-77
2021/06/13 07:52:37;;;;;;;3.38;1.27;;;21.60;46.60;;;;;;4707865;30;20048;-78
2021/06/13 07:55:05;;;;;;;6.32;1.48;;;21.90;46.40;;;;;;4712395;30;20033;-78
2021/06/13 07:57:31;;;;;;;8.45;1.77;;;22.00;45.90;;;;;;4712592;30;20049;-78
2021/06/13 07:59:58;;;;;;;7.88;1.90;;;22.30;46.40;;;;;;4711437;30;20380;-78
2021/06/13 08:02:23;;;;;;;10.50;1.95;;;22.30;45.20;;;;;;4712792;30;20114;-77
2021/06/13 08:04:55;;;;;;;2.60;1.05;;;22.40;44.30;;;;;;4707801;30;20266;-77
2021/06/13 08:07:21;;;;;;;4.53;1.63;;;22.50;44.90;;;;;;4707691;30;20046;-78
2021/06/13 08:09:46;;;;;;;7.75;1.92;;;22.70;45.40;;;;;;4708514;30;20033;-77
2021/06/13 08:12:12;;;;;;;10.88;1.83;;;22.80;45.50;;;;;;4711028;30;20206;-77
2021/06/13 08:14:38;;;;;;;4.45;1.48;;;22.90;45.10;;;;;;4725434;30;20031;-79
2021/06/13 08:17:04;;;;;;;7.40;1.70;;;22.90;44.50;;;;;;4699784;30;20034;-79
2021/06/13 08:19:30;;;;;;;7.13;1.70;;;22.80;44.50;;;;;;4699271;30;20144;-80
2021/06/13 08:21:56;;;;;;;6.63;1.48;;;22.90;44.00;;;;;;4708292;30;20061;-77
2021/06/13 08:24:22;;;;;;;5.75;1.52;;;23.00;43.60;;;;;;4715843;30;20067;-76
2021/06/13 08:26:48;;;;;;;3.92;1.50;;;23.00;44.10;;;;;;4710648;30;20109;-78
2021/06/13 08:29:14;;;;;;;9.82;2.20;;;23.00;43.80;;;;;;4709258;30;20026;-80
2021/06/13 08:31:40;;;;;;;5.75;1.58;;;23.10;44.90;;;;;;4711506;30;20037;-77
2021/06/13 08:34:06;;;;;;;6.22;1.80;;;23.30;44.10;;;;;;4711607;30;20025;-79
2021/06/13 08:36:32;;;;;;;8.65;2.58;;;23.50;44.30;;;;;;4710603;30;20045;-79
2021/06/13 08:38:58;;;;;;;4.93;1.87;;;23.60;44.30;;;;;;4710616;30;20330;-77
2021/06/13 08:41:24;;;;;;;4.82;1.58;;;23.40;43.70;;;;;;4693318;30;20049;-78
2021/06/13 08:43:51;;;;;;;5.78;1.60;;;23.40;44.10;;;;;;4690740;30;20048;-79
2021/06/13 08:46:17;;;;;;;19.55;1.90;;;23.20;43.60;;;;;;4705288;30;20211;-80
2021/06/13 08:48:47;;;;;;;5.37;2.27;;;23.30;44.40;;;;;;4711091;30;20029;-78
2021/06/13 08:51:14;;;;;;;3.78;1.25;;;23.60;43.00;;;;;;4707875;30;20030;-79
2021/06/13 08:53:50;;;;;;;6.72;1.63;;;23.60;43.50;;;;;;4725031;30;20033;-80
2021/06/13 08:56:18;;;;;;;7.77;1.90;;;23.50;44.10;;;;;;4709731;30;20040;-80
2021/06/13 08:58:45;;;;;;;8.73;2.05;;;23.60;42.60;;;;;;4710441;30;20029;-81
2021/06/13 09:01:14;;;;;;;3.38;1.70;;;23.40;44.50;;;;;;4725165;30;20080;-79
2021/06/13 09:03:41;;;;;;;4.45;1.50;;;23.40;43.80;;;;;;4699490;30;20029;-79
2021/06/13 09:06:08;;;;;;;3.95;1.48;;;23.40;43.90;;;;;;4695683;30;20061;-79
2021/06/13 09:08:35;;;;;;;10.90;1.40;;;23.30;43.00;;;;;;4711336;30;20021;-81
2021/06/13 09:11:01;;;;;;;9.60;1.92;;;23.30;43.20;;;;;;4710334;30;20321;-80
2021/06/13 09:13:29;;;;;;;7.88;1.65;;;23.20;42.90;;;;;;4710016;30;20067;-80
2021/06/13 09:16:01;;;;;;;8.05;1.50;;;23.10;43.60;;;;;;4721709;30;20046;-80
2021/06/13 09:18:39;;;;;;;5.65;1.48;;;23.00;42.50;;;;;;4692776;30;20080;-81
2021/06/13 09:21:13;;;;;;;9.00;1.63;;;22.90;42.90;;;;;;4708725;30;20051;-80
2021/06/13 09:23:41;;;;;;;5.88;1.40;;;23.00;42.90;;;;;;4710335;30;20057;-79
2021/06/13 09:26:12;;;;;;;8.45;1.63;;;23.20;42.30;;;;;;4711606;30;20033;-82
2021/06/13 09:28:41;;;;;;;10.63;1.85;;;22.90;42.60;;;;;;4695496;30;20087;-80
2021/06/13 09:31:24;;;;;;;8.15;1.70;;;22.90;43.40;;;;;;4709699;30;20037;-83
2021/06/13 09:33:53;;;;;;;7.47;1.92;;;23.00;44.00;;;;;;4692108;30;20033;-80
2021/06/13 09:36:25;;;;;;;6.25;1.58;;;23.10;43.10;;;;;;4709401;30;20233;-82
2021/06/13 09:39:05;;;;;;;4.80;1.70;;;23.20;43.90;;;;;;4710064;30;20048;-81
2021/06/13 09:41:32;;;;;;;8.85;1.55;;;23.20;43.40;;;;;;4695593;30;20034;-80
2021/06/13 09:44:05;;;;;;;9.60;1.98;;;23.30;43.60;;;;;;4705148;30;20030;-81
2021/06/13 09:46:33;;;;;;;5.45;1.92;;;23.50;43.10;;;;;;4698201;30;20081;-82
2021/06/13 09:49:02;;;;;;;5.53;1.52;;;23.70;44.50;;;;;;4706538;30;20042;-81
2021/06/13 09:51:33;;;;;;;8.25;2.42;;;24.00;42.40;;;;;;4678296;30;20044;-81
2021/06/13 09:54:01;;;;;;;10.52;2.75;;;24.00;41.90;;;;;;4691102;30;20062;-81
2021/06/13 09:56:31;;;;;;;7.05;2.05;;;24.10;41.50;;;;;;4710223;30;20037;-81
2021/06/13 09:59:11;;;;;;;6.65;1.40;;;24.10;42.30;;;;;;4709823;30;20112;-82
2021/06/13 10:01:57;;;;;;;6.95;1.67;;;24.10;41.90;;;;;;4708724;30;20053;-79
2021/06/13 10:04:30;;;;;;;8.75;1.60;;;24.30;43.10;;;;;;4711084;30;20029;-80
2021/06/13 10:07:00;;;;;;;4.25;1.77;;;24.50;41.10;;;;;;4707255;30;20347;-81
2021/06/13 10:09:40;;;;;;;7.30;1.77;;;24.70;42.80;;;;;;4691945;30;20038;-81
2021/06/13 10:12:09;;;;;;;8.05;1.95;;;24.50;41.20;;;;;;4704592;30;20032;-80
2021/06/13 10:14:35;;;;;;;5.60;1.73;;;24.00;42.00;;;;;;4709615;30;20060;-82
2021/06/13 10:17:01;;;;;;;10.80;2.17;;;23.70;41.60;;;;;;4709383;30;20084;-80
2021/06/13 10:19:35;;;;;;;4.65;1.95;;;23.30;43.10;;;;;;4724090;30;20344;-79
2021/06/13 10:22:01;;;;;;;8.00;1.60;;;23.40;44.00;;;;;;4692995;30;20061;-79
2021/06/13 10:24:36;;;;;;;7.32;1.98;;;23.80;43.20;;;;;;4689478;30;20045;-78
2021/06/13 10:27:06;;;;;;;6.22;1.60;;;24.30;41.70;;;;;;4707575;30;20030;-78
2021/06/13 10:29:33;;;;;;;9.95;1.63;;;24.50;41.90;;;;;;4706562;30;20065;-79
2021/06/13 10:32:01;;;;;;;8.00;1.65;;;24.40;40.50;;;;;;4720199;30;20060;-75
2021/06/13 10:34:28;;;;;;;6.53;1.60;;;24.30;41.20;;;;;;4703240;30;20065;-76
2021/06/13 10:36:56;;;;;;;5.47;2.13;;;24.30;41.40;;;;;;4708683;30;20044;-76
2021/06/13 10:39:28;;;;;;;8.85;1.70;;;24.40;41.90;;;;;;4706411;30;20041;-76
2021/06/13 10:41:55;;;;;;;5.07;1.70;;;24.60;39.30;;;;;;4707739;30;20233;-75
2021/06/13 10:44:22;;;;;;;;;;;24.80;40.30;;;;;;4707675;30;20097;-77
2021/06/13 10:46:51;;;;;;;6.00;2.03;;;24.80;39.50;;;;;;4705111;30;19919;-75
2021/06/13 10:49:36;;;;;;;5.38;1.60;;;24.80;41.20;;;;;;4721975;30;20059;-76
2021/06/13 10:52:11;;;;;;;4.68;1.90;;;24.80;41.20;;;;;;4707501;30;20045;-76
2021/06/13 10:54:39;;;;;;;6.63;1.73;;;24.60;40.80;;;;;;4702895;30;20774;-74
2021/06/13 10:57:08;;;;;;;10.73;2.10;;;24.50;42.30;;;;;;4708231;30;20174;-75
2021/06/13 10:59:42;;;;;;;7.72;1.60;;;24.50;40.50;;;;;;4708369;30;20045;-76
2021/06/13 11:02:11;;;;;;;5.25;2.00;;;24.70;41.50;;;;;;4706448;30;20051;-76
2021/06/13 11:04:50;;;;;;;5.50;1.95;;;24.80;40.30;;;;;;4706537;30;20301;-75
2021/06/13 11:07:51;;;;;;;7.82;1.92;;;24.90;40.70;;;;;;4703814;30;20067;-74
2021/06/13 11:10:17;;;;;;;9.25;2.03;;;25.00;39.50;;;;;;4710809;30;20032;-75
2021/06/13 11:13:01;;;;;;;6.80;1.57;;;24.90;39.00;;;;;;4712833;30;20218;-75
2021/06/13 11:18:15;;;;;;;9.40;1.75;;;24.60;39.80;;;;;;4701662;30;20363;-74
2021/06/13 11:23:31;;;;;;;6.93;1.50;;;24.60;40.70;;;;;;4709599;30;20209;-74
2021/06/13 11:26:02;;;;;;;8.32;1.77;;;24.40;39.50;;;;;;4709063;30;20021;-74
2021/06/13 11:28:35;;;;;;;5.65;1.58;;;24.50;41.00;;;;;;4709876;30;20325;-74
2021/06/13 11:31:09;;;;;;;5.90;1.75;;;24.50;40.00;;;;;;4709160;30;20036;-74
2021/06/13 11:33:42;;;;;;;10.65;2.25;;;24.50;39.30;;;;;;4720756;30;20029;-74
2021/06/13 11:36:22;;;;;;;3.97;1.85;;;24.50;40.60;;;;;;4709472;30;20026;-74
2021/06/13 11:38:50;;;;;;;9.20;1.45;;;24.40;39.60;;;;;;4720144;30;20044;-75
2021/06/13 11:41:29;;;;;;;7.53;1.85;;;24.50;39.40;;;;;;4706097;30;20068;-73
2021/06/13 11:43:56;;;;;;;7.32;1.50;;;24.50;39.00;;;;;;4708464;30;20041;-74
2021/06/13 11:46:33;;;;;;;11.23;1.80;;;24.40;39.40;;;;;;4702510;30;20052;-75
2021/06/13 11:49:01;;;;;;;6.78;1.38;;;24.30;38.10;;;;;;4709684;30;20049;-74
2021/06/13 11:51:27;;;;;;;5.00;1.65;;;24.10;38.40;;;;;;4710034;30;20446;-74
2021/06/13 11:54:05;;;;;;;6.65;1.77;;;24.20;38.60;;;;;;4709826;30;20101;-74
2021/06/13 11:56:33;;;;;;;13.73;1.60;;;24.40;38.00;;;;;;4710628;30;20041;-74
2021/06/13 11:59:20;;;;;;;9.27;2.33;;;24.40;38.10;;;;;;4708684;30;20065;-75
2021/06/13 12:02:16;;;;;;;4.93;1.70;;;24.50;39.60;;;;;;4718823;30;20049;-75
2021/06/13 12:04:44;;;;;;;5.00;1.77;;;24.80;36.90;;;;;;4721232;30;20045;-75
2021/06/13 12:07:15;;;;;;;15.60;1.80;;;24.90;38.40;;;;;;4710327;30;20321;-75
2021/06/13 12:09:41;;;;;;;10.13;1.77;;;24.90;37.30;;;;;;4705252;30;20048;-75
2021/06/13 12:12:09;;;;;;;9.53;2.57;;;24.60;38.20;;;;;;4708395;30;20041;-77
2021/06/13 12:14:44;;;;;;;8.95;1.80;;;24.40;38.80;;;;;;4710489;30;20087;-76
2021/06/13 12:17:20;;;;;;;5.03;1.42;;;24.50;38.20;;;;;;4717938;30;20082;-76
2021/06/13 12:19:54;;;;;;;3.80;1.70;;;24.40;38.40;;;;;;4714934;30;20292;-76
2021/06/13 12:28:10;;;;;;;7.70;2.13;;;24.60;39.10;;;;;;4719532;30;20391;-75
2021/06/13 12:30:38;;;;;;;3.17;1.67;;;24.70;39.10;;;;;;4714000;30;20054;-74
2021/06/13 12:33:07;;;;;;;6.53;1.98;;;24.90;38.70;;;;;;4703746;30;20045;-75
2021/06/13 12:35:37;;;;;;;8.93;2.03;;;24.90;38.30;;;;;;4723475;30;20136;-75
2021/06/13 12:38:07;;;;;;;6.88;2.30;;;24.80;38.30;;;;;;4699173;30;20089;-75
2021/06/13 12:40:48;;;;;;;10.45;2.33;;;24.80;39.10;;;;;;4716743;30;20054;-76
2021/06/13 12:43:15;;;;;;;7.78;2.40;;;24.50;37.70;;;;;;4709441;30;20044;-75
2021/06/13 12:45:43;;;;;;;7.70;1.70;;;24.50;39.60;;;;;;4707592;30;20071;-75
2021/06/13 12:48:11;;;;;;;9.48;2.35;;;24.60;39.00;;;;;;4709474;30;20326;-76
2021/06/13 12:50:42;;;;;;;5.82;2.05;;;24.70;39.20;;;;;;4709233;30;20045;-76
2021/06/13 12:53:14;;;;;;;6.05;1.80;;;24.90;39.10;;;;;;4722705;30;20037;-76
2021/06/13 12:55:44;;;;;;;8.75;1.90;;;25.10;37.90;;;;;;4690808;30;20046;-75
2021/06/13 12:58:13;;;;;;;6.38;2.58;;;25.10;38.30;;;;;;4701958;30;20041;-75
2021/06/13 13:00:40;;;;;;;12.95;2.35;;;25.10;37.90;;;;;;4706535;30;20052;-75
2021/06/13 13:03:11;;;;;;;10.73;2.13;;;24.90;37.30;;;;;;4707676;30;20037;-75
2021/06/13 13:05:38;;;;;;;4.80;1.60;;;24.90;37.90;;;;;;4709212;30;20037;-75
2021/06/13 13:08:23;;;;;;;5.90;1.98;;;24.80;38.00;;;;;;4707779;30;20037;-75
2021/06/13 13:11:00;;;;;;;4.78;1.90;;;24.80;38.80;;;;;;4711620;30;20360;-74
2021/06/13 13:13:42;;;;;;;6.55;2.22;;;24.90;39.30;;;;;;4707152;30;20037;-75
2021/06/13 13:16:33;;;;;;;6.03;2.20;;;24.90;38.90;;;;;;4707675;30;20043;-75
2021/06/13 13:18:59;;;;;;;5.28;2.08;;;25.00;37.30;;;;;;4705935;30;20046;-76
2021/06/13 13:21:41;;;;;;;6.40;2.07;;;24.90;38.50;;;;;;4706034;30;20029;-75
2021/06/13 13:24:33;;;;;;;5.45;2.13;;;24.80;38.30;;;;;;4716547;30;20072;-74
2021/06/13 13:27:08;;;;;;;7.60;1.80;;;24.80;38.20;;;;;;4693201;30;20100;-75
2021/06/13 13:29:51;;;;;;;6.57;1.70;;;24.80;38.30;;;;;;4707594;30;20087;-75
2021/06/13 13:32:17;;;;;;;11.50;2.60;;;24.60;38.20;;;;;;4707272;30;20056;-74
2021/06/13 13:34:45;;;;;;;8.70;2.30;;;24.20;38.70;;;;;;4702869;30;20329;-73
2021/06/13 13:37:15;;;;;;;7.45;2.40;;;24.10;39.30;;;;;;4706735;30;20050;-74
2021/06/13 13:39:42;;;;;;;3.70;1.77;;;24.10;39.30;;;;;;4702698;30;20040;-74
2021/06/13 13:42:11;;;;;;;6.75;2.00;;;24.00;37.90;;;;;;4707378;30;20048;-74
2021/06/13 13:44:37;;;;;;;4.68;1.45;;;23.90;39.20;;;;;;4705566;30;20104;-74
2021/06/13 13:47:08;;;;;;;7.20;2.13;;;24.10;38.40;;;;;;4708038;30;20076;-75
2021/06/13 13:49:35;;;;;;;8.30;2.20;;;24.30;38.80;;;;;;4708433;30;20045;-75
2021/06/13 13:52:03;;;;;;;4.60;1.95;;;24.20;39.00;;;;;;4707248;30;20274;-76
2021/06/13 13:54:37;;;;;;;7.57;2.40;;;24.10;38.90;;;;;;4707739;30;20045;-77
2021/06/13 13:57:09;;;;;;;10.75;2.20;;;24.10;39.70;;;;;;4704813;30;20081;-76
2021/06/13 13:59:40;;;;;;;6.28;1.80;;;24.00;39.80;;;;;;4695318;30;20042;-77
2021/06/13 14:02:07;;;;;;;9.98;1.90;;;24.00;39.10;;;;;;4703548;30;20038;-76
2021/06/13 14:04:35;;;;;;;5.65;1.58;;;23.80;39.10;;;;;;4707619;30;20030;-77
2021/06/13 14:07:02;;;;;;;4.72;1.50;;;23.80;38.80;;;;;;4708737;30;20045;-77
2021/06/13 14:09:27;;;;;;;3.28;1.55;;;23.70;39.70;;;;;;4709095;30;20034;-77
2021/06/13 14:11:54;;;;;;;6.57;2.20;;;23.70;38.30;;;;;;4709105;30;20036;-77
2021/06/13 14:14:20;;;;;;;7.77;2.10;;;23.80;39.70;;;;;;4705565;30;20045;-77
2021/06/13 14:16:48;;;;;;;5.38;1.98;;;23.90;38.80;;;;;;4712935;30;20096;-77
2021/06/13 14:19:15;;;;;;;6.15;3.55;;;23.70;39.30;;;;;;4708325;30;20048;-77
2021/06/13 14:21:44;;;;;;;6.03;2.30;;;23.80;40.70;;;;;;4705110;30;20085;-77
2021/06/13 14:24:11;;;;;;;4.72;2.45;;;23.80;38.80;;;;;;4696262;30;20061;-78
2021/06/13 14:26:38;;;;;;;4.70;2.42;;;23.60;39.20;;;;;;4704952;30;20369;-77
2021/06/13 14:29:04;;;;;;;9.20;3.45;;;23.60;39.20;;;;;;4706604;30;20042;-77
2021/06/13 14:31:30;;;;;;;8.15;2.47;;;23.50;40.50;;;;;;4703740;30;20048;-77
2021/06/13 14:33:56;;;;;;;6.78;2.55;;;23.60;40.40;;;;;;4708576;30;20316;-76
2021/06/13 14:36:24;;;;;;;11.40;4.47;;;23.70;40.00;;;;;;4708252;30;20063;-77
2021/06/13 14:38:51;;;;;;;13.98;3.00;;;23.50;39.10;;;;;;4710983;30;20037;-77
2021/06/13 14:41:17;;;;;;;13.68;2.78;;;23.10;39.40;;;;;;4708715;30;20034;-78
2021/06/13 14:43:43;;;;;;;8.27;2.50;;;23.10;40.20;;;;;;4706461;30;20325;-78
2021/06/13 14:46:09;;;;;;;7.38;2.70;;;23.20;40.80;;;;;;4727452;30;20340;-78
2021/06/13 14:48:35;;;;;;;7.13;2.58;;;23.30;40.80;;;;;;4716985;30;20030;-78
2021/06/13 14:51:01;;;;;;;8.43;2.65;;;23.30;40.00;;;;;;4698575;30;20033;-77
2021/06/13 14:53:27;;;;;;;8.00;2.55;;;23.40;39.90;;;;;;4722823;30;20337;-79
2021/06/13 14:55:54;;;;;;;4.00;2.15;;;23.40;40.20;;;;;;4696708;30;20096;-76
2021/06/13 14:58:20;;;;;;;7.82;2.47;;;23.30;39.60;;;;;;4710977;30;20829;-80
2021/06/13 15:00:50;;;;;;;9.18;2.20;;;23.30;39.90;;;;;;4696092;30;20045;-77
2021/06/13 15:03:18;;;;;;;7.65;2.00;;;23.10;39.40;;;;;;4719059;30;20340;-77
2021/06/13 15:05:44;;;;;;;10.30;1.90;;;23.00;41.00;;;;;;4713288;30;20351;-76
2021/06/13 15:08:10;;;;;;;8.88;2.42;;;23.10;40.90;;;;;;4711793;30;20029;-77
2021/06/13 15:10:35;;;;;;;8.80;2.33;;;23.30;41.30;;;;;;4711830;30;20029;-77
2021/06/13 15:13:01;;;;;;;14.07;2.42;;;23.40;40.50;;;;;;4721987;30;20125;-78
2021/06/13 15:15:27;;;;;;;7.93;2.33;;;23.30;40.10;;;;;;4709037;30;20088;-77
2021/06/13 15:17:53;;;;;;;9.75;3.13;;;23.20;40.40;;;;;;4711870;30;20033;-78
2021/06/13 15:20:19;;;;;;;8.52;2.22;;;23.00;40.90;;;;;;4711299;30;20320;-78
2021/06/13 15:22:45;;;;;;;7.97;2.80;;;23.00;40.80;;;;;;4711924;30;20029;-77
2021/06/13 15:25:13;;;;;;;11.70;2.40;;;23.00;41.30;;;;;;4715522;30;20079;-77
2021/06/13 15:27:40;;;;;;;6.05;2.15;;;22.90;41.30;;;;;;4694338;30;20293;-77
2021/06/13 15:30:08;;;;;;;7.05;1.98;;;22.80;41.80;;;;;;4711863;30;20065;-77
2021/06/13 15:32:34;;;;;;;11.52;2.78;;;22.70;41.70;;;;;;4718767;30;20204;-77
2021/06/13 15:35:00;;;;;;;12.93;2.22;;;22.60;41.50;;;;;;4709516;30;20128;-77
2021/06/13 15:37:32;;;;;;;9.10;1.88;;;22.50;41.40;;;;;;4715744;30;20038;-76
2021/06/13 15:39:59;;;;;;;9.45;2.30;;;22.30;41.50;;;;;;4712184;30;20037;-78
2021/06/13 15:42:25;;;;;;;6.78;2.30;;;22.30;41.60;;;;;;4718454;30;20033;-77
2021/06/13 15:44:52;;;;;;;11.30;2.78;;;22.30;41.50;;;;;;4711302;30;20052;-78
2021/06/13 15:47:23;;;;;;;5.88;1.88;;;22.30;41.90;;;;;;4701719;30;20215;-78
2021/06/13 15:49:51;;;;;;;9.05;3.55;;;22.30;42.30;;;;;;4702076;30;20084;-78
2021/06/13 15:52:20;;;;;;;10.48;4.03;;;22.30;42.40;;;;;;4701770;30;20566;-78